Terminal Aerodrome Forecast
Issued by NWS

Home | Current Version | Previous Version | Text Only | Print | Product List | Glossary On
Versions: 1 2 3 4 5 6 7 8 9 10 11 12 13 14 15 16 17 18 19 20 21 22 23 24 25 26 27 28 29 30 31 32
000
FTUS43 KDVN 260520
TAFBRL
TAF
KBRL 260520Z 2606/2706 31007KT P6SM SKC
     FM261200 35007KT P6SM SCT015
     FM261600 04013KT P6SM SCT025 BKN150
     FM270300 08015G22KT P6SM BKN025=

USA.gov is the U.S. government's official web portal to all federal, state and local government web resources and services.